sensor_id;sensor_type;location;lat;lon;timestamp;pressure;altitude;pressure_sealevel;temperature;humidity
29247;BME280;16272;48.188;9.964;2022-12-18T00:01:28;96753.25;;;-2.37;67.94
29247;BME280;16272;48.188;9.964;2022-12-18T00:03:55;96755.16;;;-2.43;67.84
29247;BME280;16272;48.188;9.964;2022-12-18T00:06:21;96754.59;;;-2.26;67.46
29247;BME280;16272;48.188;9.964;2022-12-18T00:08:47;96744.47;;;-2.90;69.67
29247;BME280;16272;48.188;9.964;2022-12-18T00:11:15;96745.97;;;-2.83;69.55
29247;BME280;16272;48.188;9.964;2022-12-18T00:13:41;96751.72;;;-2.45;68.29
29247;BME280;16272;48.188;9.964;2022-12-18T00:16:10;96746.09;;;-2.31;68.09
29247;BME280;16272;48.188;9.964;2022-12-18T00:18:35;96747.91;;;-2.61;68.19
29247;BME280;16272;48.188;9.964;2022-12-18T00:21:03;96757.59;;;-2.66;68.19
29247;BME280;16272;48.188;9.964;2022-12-18T00:23:30;96750.91;;;-2.73;68.75
29247;BME280;16272;48.188;9.964;2022-12-18T00:25:59;96756.84;;;-2.70;69.27
29247;BME280;16272;48.188;9.964;2022-12-18T00:28:24;96762.34;;;-2.51;68.34
29247;BME280;16272;48.188;9.964;2022-12-18T00:30:50;96772.34;;;-2.95;69.05
29247;BME280;16272;48.188;9.964;2022-12-18T00:33:17;96766.16;;;-3.21;70.63
29247;BME280;16272;48.188;9.964;2022-12-18T00:35:42;96762.72;;;-2.63;68.29
29247;BME280;16272;48.188;9.964;2022-12-18T00:38:08;96773.22;;;-2.66;68.51
29247;BME280;16272;48.188;9.964;2022-12-18T00:40:33;96770.47;;;-2.62;68.34
29247;BME280;16272;48.188;9.964;2022-12-18T00:42:58;96782.22;;;-3.06;69.99
29247;BME280;16272;48.188;9.964;2022-12-18T00:45:29;96769.94;;;-2.73;68.93
29247;BME280;16272;48.188;9.964;2022-12-18T00:47:55;96772.59;;;-2.74;68.50
29247;BME280;16272;48.188;9.964;2022-12-18T00:50:23;96771.31;;;-2.89;69.15
29247;BME280;16272;48.188;9.964;2022-12-18T00:52:49;96776.38;;;-2.85;69.46
29247;BME280;16272;48.188;9.964;2022-12-18T00:55:15;96773.06;;;-2.62;68.49
29247;BME280;16272;48.188;9.964;2022-12-18T00:57:41;96773.47;;;-2.46;68.06
29247;BME280;16272;48.188;9.964;2022-12-18T01:00:10;96770.16;;;-2.51;68.16
29247;BME280;16272;48.188;9.964;2022-12-18T01:02:36;96780.72;;;-2.85;68.89
29247;BME280;16272;48.188;9.964;2022-12-18T01:05:02;96791.25;;;-2.90;69.08
29247;BME280;16272;48.188;9.964;2022-12-18T01:07:27;96785.41;;;-2.68;68.93
29247;BME280;16272;48.188;9.964;2022-12-18T01:09:52;96795.63;;;-2.92;69.46
29247;BME280;16272;48.188;9.964;2022-12-18T01:12:18;96785.47;;;-2.70;68.40
29247;BME280;16272;48.188;9.964;2022-12-18T01:14:44;96783.78;;;-2.72;68.59
29247;BME280;16272;48.188;9.964;2022-12-18T01:17:09;96780.28;;;-3.00;69.87
29247;BME280;16272;48.188;9.964;2022-12-18T01:19:35;96784.53;;;-2.97;69.61
29247;BME280;16272;48.188;9.964;2022-12-18T01:22:00;96796.00;;;-2.74;68.94
29247;BME280;16272;48.188;9.964;2022-12-18T01:24:25;96789.97;;;-2.75;69.03
29247;BME280;16272;48.188;9.964;2022-12-18T01:26:51;96808.47;;;-2.86;69.59
29247;BME280;16272;48.188;9.964;2022-12-18T01:29:16;96809.16;;;-3.10;70.00
29247;BME280;16272;48.188;9.964;2022-12-18T01:31:42;96816.91;;;-3.09;70.36
29247;BME280;16272;48.188;9.964;2022-12-18T01:34:08;96816.13;;;-2.81;69.21
29247;BME280;16272;48.188;9.964;2022-12-18T01:36:36;96812.25;;;-2.68;69.51
29247;BME280;16272;48.188;9.964;2022-12-18T01:39:07;96821.06;;;-2.44;68.92
29247;BME280;16272;48.188;9.964;2022-12-18T01:41:34;96824.38;;;-2.38;68.40
29247;BME280;16272;48.188;9.964;2022-12-18T01:47:24;96822.16;;;-2.81;69.50
29247;BME280;16272;48.188;9.964;2022-12-18T01:49:50;96824.44;;;-2.68;68.95
29247;BME280;16272;48.188;9.964;2022-12-18T01:52:16;96822.53;;;-3.23;70.37
29247;BME280;16272;48.188;9.964;2022-12-18T01:54:42;96822.03;;;-3.37;71.73
29247;BME280;16272;48.188;9.964;2022-12-18T01:57:08;96819.03;;;-3.23;71.09
29247;BME280;16272;48.188;9.964;2022-12-18T01:59:34;96825.19;;;-3.26;70.74
29247;BME280;16272;48.188;9.964;2022-12-18T02:02:01;96821.00;;;-3.32;70.50
29247;BME280;16272;48.188;9.964;2022-12-18T02:04:28;96818.84;;;-3.16;70.11
29247;BME280;16272;48.188;9.964;2022-12-18T02:09:53;96818.19;;;-2.92;70.36
29247;BME280;16272;48.188;9.964;2022-12-18T02:12:24;96817.97;;;-2.85;69.63
29247;BME280;16272;48.188;9.964;2022-12-18T02:15:11;96814.06;;;-3.00;70.78
29247;BME280;16272;48.188;9.964;2022-12-18T02:17:47;96816.31;;;-2.87;70.07
29247;BME280;16272;48.188;9.964;2022-12-18T02:20:22;96822.09;;;-2.78;69.70
29247;BME280;16272;48.188;9.964;2022-12-18T02:23:11;96807.34;;;-2.77;69.75
29247;BME280;16272;48.188;9.964;2022-12-18T02:25:40;96810.47;;;-2.66;68.97
29247;BME280;16272;48.188;9.964;2022-12-18T02:28:13;96808.72;;;-2.65;69.21
29247;BME280;16272;48.188;9.964;2022-12-18T02:30:42;96812.47;;;-3.05;69.66
29247;BME280;16272;48.188;9.964;2022-12-18T02:33:08;96815.56;;;-3.22;70.45
29247;BME280;16272;48.188;9.964;2022-12-18T02:35:36;96809.34;;;-3.17;70.38
29247;BME280;16272;48.188;9.964;2022-12-18T02:38:04;96805.41;;;-3.00;70.08
29247;BME280;16272;48.188;9.964;2022-12-18T02:40:30;96801.03;;;-2.98;69.87
29247;BME280;16272;48.188;9.964;2022-12-18T02:43:13;96802.81;;;-3.00;69.84
29247;BME280;16272;48.188;9.964;2022-12-18T02:49:21;96810.88;;;-3.09;70.52
29247;BME280;16272;48.188;9.964;2022-12-18T02:57:34;96825.94;;;-3.54;71.72
29247;BME280;16272;48.188;9.964;2022-12-18T03:00:09;96823.22;;;-3.49;71.36
29247;BME280;16272;48.188;9.964;2022-12-18T03:02:53;96818.56;;;-3.05;70.10
29247;BME280;16272;48.188;9.964;2022-12-18T03:05:36;96818.50;;;-3.03;69.18
29247;BME280;16272;48.188;9.964;2022-12-18T03:08:22;96825.03;;;-3.20;70.16
29247;BME280;16272;48.188;9.964;2022-12-18T03:10:53;96818.75;;;-3.12;70.39
29247;BME280;16272;48.188;9.964;2022-12-18T03:13:27;96818.59;;;-2.77;68.97
29247;BME280;16272;48.188;9.964;2022-12-18T03:15:56;96813.09;;;-2.67;68.29
29247;BME280;16272;48.188;9.964;2022-12-18T03:18:29;96815.69;;;-2.37;68.13
29247;BME280;16272;48.188;9.964;2022-12-18T03:20:58;96815.09;;;-2.19;67.15
29247;BME280;16272;48.188;9.964;2022-12-18T03:23:30;96820.06;;;-2.68;68.04
29247;BME280;16272;48.188;9.964;2022-12-18T03:26:01;96830.81;;;-2.50;68.02
29247;BME280;16272;48.188;9.964;2022-12-18T03:28:29;96831.38;;;-2.69;68.46
29247;BME280;16272;48.188;9.964;2022-12-18T03:30:57;96826.44;;;-2.78;69.40
29247;BME280;16272;48.188;9.964;2022-12-18T03:33:34;96825.03;;;-3.20;69.90
29247;BME280;16272;48.188;9.964;2022-12-18T03:36:03;96824.81;;;-2.82;68.82
29247;BME280;16272;48.188;9.964;2022-12-18T03:38:29;96827.91;;;-2.99;68.81
29247;BME280;16272;48.188;9.964;2022-12-18T03:41:15;96817.00;;;-3.12;69.67
29247;BME280;16272;48.188;9.964;2022-12-18T03:43:55;96826.94;;;-2.95;69.03
29247;BME280;16272;48.188;9.964;2022-12-18T03:46:47;96816.84;;;-3.06;69.24
29247;BME280;16272;48.188;9.964;2022-12-18T03:49:26;96823.16;;;-3.46;70.23
29247;BME280;16272;48.188;9.964;2022-12-18T03:52:18;96824.56;;;-3.34;70.14
29247;BME280;16272;48.188;9.964;2022-12-18T03:54:46;96825.78;;;-3.47;71.10
29247;BME280;16272;48.188;9.964;2022-12-18T03:57:18;96833.22;;;-3.35;70.72
29247;BME280;16272;48.188;9.964;2022-12-18T03:59:45;96836.44;;;-3.58;71.12
29247;BME280;16272;48.188;9.964;2022-12-18T04:02:12;96829.91;;;-3.40;70.86
29247;BME280;16272;48.188;9.964;2022-12-18T04:04:39;96831.97;;;-3.53;70.83
29247;BME280;16272;48.188;9.964;2022-12-18T04:07:06;96839.75;;;-3.20;69.33
29247;BME280;16272;48.188;9.964;2022-12-18T04:09:34;96839.47;;;-3.09;69.21
29247;BME280;16272;48.188;9.964;2022-12-18T04:12:00;96842.72;;;-3.01;69.01
29247;BME280;16272;48.188;9.964;2022-12-18T04:14:25;96836.03;;;-2.80;68.55
29247;BME280;16272;48.188;9.964;2022-12-18T04:16:51;96841.78;;;-2.69;67.75
29247;BME280;16272;48.188;9.964;2022-12-18T04:19:16;96847.06;;;-2.72;68.13
29247;BME280;16272;48.188;9.964;2022-12-18T04:21:41;96837.25;;;-2.34;67.57
29247;BME280;16272;48.188;9.964;2022-12-18T04:24:07;96846.69;;;-2.89;68.28
29247;BME280;16272;48.188;9.964;2022-12-18T04:26:32;96833.47;;;-2.52;67.35
29247;BME280;16272;48.188;9.964;2022-12-18T04:28:57;96830.72;;;-2.47;67.26
29247;BME280;16272;48.188;9.964;2022-12-18T04:31:23;96836.94;;;-1.96;66.22
29247;BME280;16272;48.188;9.964;2022-12-18T04:33:48;96836.53;;;-2.11;66.09
29247;BME280;16272;48.188;9.964;2022-12-18T04:36:13;96847.31;;;-2.23;66.00
29247;BME280;16272;48.188;9.964;2022-12-18T04:38:39;96849.88;;;-2.80;66.97
29247;BME280;16272;48.188;9.964;2022-12-18T04:41:04;96851.91;;;-2.60;68.04
29247;BME280;16272;48.188;9.964;2022-12-18T04:43:29;96849.63;;;-2.70;67.54
29247;BME280;16272;48.188;9.964;2022-12-18T04:46:02;96849.38;;;-2.92;68.71
29247;BME280;16272;48.188;9.964;2022-12-18T04:48:27;96852.78;;;-3.22;69.09
29247;BME280;16272;48.188;9.964;2022-12-18T04:50:53;96857.13;;;-2.91;68.22
29247;BME280;16272;48.188;9.964;2022-12-18T04:53:19;96859.09;;;-2.99;69.01
29247;BME280;16272;48.188;9.964;2022-12-18T04:55:44;96862.38;;;-3.57;70.21
29247;BME280;16272;48.188;9.964;2022-12-18T04:58:09;96864.75;;;-3.47;70.21
29247;BME280;16272;48.188;9.964;2022-12-18T05:00:35;96868.63;;;-3.31;69.82
29247;BME280;16272;48.188;9.964;2022-12-18T05:03:01;96870.41;;;-3.33;69.69
29247;BME280;16272;48.188;9.964;2022-12-18T05:05:27;96872.56;;;-3.16;69.71
29247;BME280;16272;48.188;9.964;2022-12-18T05:07:52;96873.34;;;-3.12;69.77
29247;BME280;16272;48.188;9.964;2022-12-18T05:10:17;96878.03;;;-3.27;69.37
29247;BME280;16272;48.188;9.964;2022-12-18T05:12:44;96878.84;;;-3.25;69.90
29247;BME280;16272;48.188;9.964;2022-12-18T05:15:31;96876.84;;;-3.15;69.64
29247;BME280;16272;48.188;9.964;2022-12-18T05:17:58;96871.25;;;-3.31;69.84
29247;BME280;16272;48.188;9.964;2022-12-18T05:20:24;96877.50;;;-3.40;70.50
29247;BME280;16272;48.188;9.964;2022-12-18T05:22:50;96877.44;;;-3.37;70.02
29247;BME280;16272;48.188;9.964;2022-12-18T05:25:17;96874.75;;;-3.34;70.18
29247;BME280;16272;48.188;9.964;2022-12-18T05:27:43;96884.03;;;-3.25;69.79
29247;BME280;16272;48.188;9.964;2022-12-18T05:30:09;96884.53;;;-3.10;69.42
29247;BME280;16272;48.188;9.964;2022-12-18T05:32:35;96891.31;;;-3.05;68.87
29247;BME280;16272;48.188;9.964;2022-12-18T05:35:00;96893.44;;;-3.19;69.65
29247;BME280;16272;48.188;9.964;2022-12-18T05:37:25;96885.41;;;-3.44;70.25
29247;BME280;16272;48.188;9.964;2022-12-18T05:39:51;96886.69;;;-3.61;71.03
29247;BME280;16272;48.188;9.964;2022-12-18T05:42:16;96887.81;;;-3.71;71.79
29247;BME280;16272;48.188;9.964;2022-12-18T05:44:43;96892.72;;;-3.59;70.61
29247;BME280;16272;48.188;9.964;2022-12-18T05:47:08;96897.00;;;-3.58;70.82
29247;BME280;16272;48.188;9.964;2022-12-18T05:49:34;96888.00;;;-3.44;70.08
29247;BME280;16272;48.188;9.964;2022-12-18T05:51:59;96894.09;;;-3.11;69.18
29247;BME280;16272;48.188;9.964;2022-12-18T05:54:27;96888.94;;;-2.81;68.36
29247;BME280;16272;48.188;9.964;2022-12-18T05:56:52;96889.94;;;-2.55;67.39
29247;BME280;16272;48.188;9.964;2022-12-18T05:59:17;96892.84;;;-2.66;67.75
29247;BME280;16272;48.188;9.964;2022-12-18T06:01:43;96898.31;;;-2.46;67.25
29247;BME280;16272;48.188;9.964;2022-12-18T06:04:08;96896.91;;;-2.58;67.27
29247;BME280;16272;48.188;9.964;2022-12-18T06:06:34;96899.97;;;-2.73;67.54
29247;BME280;16272;48.188;9.964;2022-12-18T06:08:59;96902.41;;;-2.98;68.43
29247;BME280;16272;48.188;9.964;2022-12-18T06:11:27;96905.28;;;-3.09;68.94
29247;BME280;16272;48.188;9.964;2022-12-18T06:13:55;96898.41;;;-3.44;70.50
29247;BME280;16272;48.188;9.964;2022-12-18T06:16:21;96894.88;;;-3.76;71.66
29247;BME280;16272;48.188;9.964;2022-12-18T06:18:46;96895.47;;;-3.65;71.47
29247;BME280;16272;48.188;9.964;2022-12-18T06:21:12;96883.06;;;-3.54;70.83
29247;BME280;16272;48.188;9.964;2022-12-18T06:23:38;96903.44;;;-3.38;70.31
29247;BME280;16272;48.188;9.964;2022-12-18T06:26:08;96909.28;;;-2.97;69.25
29247;BME280;16272;48.188;9.964;2022-12-18T06:28:34;96903.78;;;-3.18;69.48
29247;BME280;16272;48.188;9.964;2022-12-18T06:30:59;96889.56;;;-3.37;69.65
29247;BME280;16272;48.188;9.964;2022-12-18T06:33:27;96899.97;;;-3.37;70.24
29247;BME280;16272;48.188;9.964;2022-12-18T06:35:53;96899.81;;;-3.31;69.93
29247;BME280;16272;48.188;9.964;2022-12-18T06:38:19;96900.19;;;-3.46;70.45
29247;BME280;16272;48.188;9.964;2022-12-18T06:40:44;96898.81;;;-3.27;69.63
29247;BME280;16272;48.188;9.964;2022-12-18T06:43:09;96903.28;;;-2.99;68.47
29247;BME280;16272;48.188;9.964;2022-12-18T06:45:35;96915.00;;;-3.16;68.55
29247;BME280;16272;48.188;9.964;2022-12-18T06:48:00;96916.06;;;-3.23;69.33
29247;BME280;16272;48.188;9.964;2022-12-18T06:50:25;96921.75;;;-3.43;69.75
29247;BME280;16272;48.188;9.964;2022-12-18T06:52:51;96925.00;;;-3.35;69.10
29247;BME280;16272;48.188;9.964;2022-12-18T06:55:16;96935.56;;;-3.41;69.67
29247;BME280;16272;48.188;9.964;2022-12-18T06:57:41;96927.03;;;-3.46;69.36
29247;BME280;16272;48.188;9.964;2022-12-18T07:00:07;96923.09;;;-3.62;70.18
29247;BME280;16272;48.188;9.964;2022-12-18T07:02:33;96923.16;;;-3.64;70.48
29247;BME280;16272;48.188;9.964;2022-12-18T07:04:58;96932.66;;;-3.64;70.50
29247;BME280;16272;48.188;9.964;2022-12-18T07:07:24;96937.22;;;-3.74;71.23
29247;BME280;16272;48.188;9.964;2022-12-18T07:09:50;96940.56;;;-3.69;70.53
29247;BME280;16272;48.188;9.964;2022-12-18T07:12:15;96939.59;;;-3.65;70.47
29247;BME280;16272;48.188;9.964;2022-12-18T07:14:40;96947.31;;;-3.26;69.10
29247;BME280;16272;48.188;9.964;2022-12-18T07:17:06;96939.09;;;-3.10;68.91
29247;BME280;16272;48.188;9.964;2022-12-18T07:19:31;96942.44;;;-3.05;68.41
29247;BME280;16272;48.188;9.964;2022-12-18T07:21:56;96953.09;;;-2.82;67.99
29247;BME280;16272;48.188;9.964;2022-12-18T07:24:22;96955.03;;;-2.59;67.08
29247;BME280;16272;48.188;9.964;2022-12-18T07:26:47;96946.56;;;-2.65;66.46
29247;BME280;16272;48.188;9.964;2022-12-18T07:29:13;96950.78;;;-2.94;67.55
29247;BME280;16272;48.188;9.964;2022-12-18T07:31:38;96957.88;;;-2.99;67.54
29247;BME280;16272;48.188;9.964;2022-12-18T07:34:04;96951.66;;;-2.93;67.40
29247;BME280;16272;48.188;9.964;2022-12-18T07:36:29;96960.13;;;-2.85;67.67
29247;BME280;16272;48.188;9.964;2022-12-18T07:38:54;96966.94;;;-2.50;66.43
29247;BME280;16272;48.188;9.964;2022-12-18T07:41:20;96962.53;;;-2.48;66.51
29247;BME280;16272;48.188;9.964;2022-12-18T07:43:45;96972.47;;;-2.93;67.45
29247;BME280;16272;48.188;9.964;2022-12-18T07:46:13;96980.97;;;-2.55;66.69
29247;BME280;16272;48.188;9.964;2022-12-18T07:48:40;96975.53;;;-2.48;66.17
29247;BME280;16272;48.188;9.964;2022-12-18T07:51:06;96978.78;;;-2.71;66.42
29247;BME280;16272;48.188;9.964;2022-12-18T07:53:32;96989.94;;;-2.67;66.83
29247;BME280;16272;48.188;9.964;2022-12-18T07:55:59;96987.16;;;-2.92;67.14
29247;BME280;16272;48.188;9.964;2022-12-18T07:58:25;96994.97;;;-2.61;66.60
29247;BME280;16272;48.188;9.964;2022-12-18T08:00:51;96993.31;;;-2.62;66.53
29247;BME280;16272;48.188;9.964;2022-12-18T08:03:18;96983.31;;;-2.46;66.21
29247;BME280;16272;48.188;9.964;2022-12-18T08:05:44;96985.91;;;-2.78;66.93
29247;BME280;16272;48.188;9.964;2022-12-18T08:08:09;96997.34;;;-2.85;66.98
29247;BME280;16272;48.188;9.964;2022-12-18T08:10:35;97001.38;;;-2.42;66.20
29247;BME280;16272;48.188;9.964;2022-12-18T08:13:00;97001.47;;;-2.45;65.92
29247;BME280;16272;48.188;9.964;2022-12-18T08:15:25;97000.19;;;-2.61;66.26
29247;BME280;16272;48.188;9.964;2022-12-18T08:17:50;96995.53;;;-2.50;66.15
29247;BME280;16272;48.188;9.964;2022-12-18T08:20:17;97000.91;;;-2.56;65.38
29247;BME280;16272;48.188;9.964;2022-12-18T08:22:44;96993.00;;;-2.84;66.41
29247;BME280;16272;48.188;9.964;2022-12-18T08:25:09;96992.47;;;-2.97;66.88
29247;BME280;16272;48.188;9.964;2022-12-18T08:27:36;96992.94;;;-3.16;67.91
29247;BME280;16272;48.188;9.964;2022-12-18T08:30:03;96985.25;;;-2.86;67.16
29247;BME280;16272;48.188;9.964;2022-12-18T08:32:30;96987.19;;;-2.94;67.36
29247;BME280;16272;48.188;9.964;2022-12-18T08:34:55;96993.63;;;-2.74;66.44
29247;BME280;16272;48.188;9.964;2022-12-18T08:37:21;96996.53;;;-2.54;66.97
29247;BME280;16272;48.188;9.964;2022-12-18T08:39:46;97002.69;;;-2.27;65.31
29247;BME280;16272;48.188;9.964;2022-12-18T08:42:11;97000.53;;;-2.11;64.84
29247;BME280;16272;48.188;9.964;2022-12-18T08:44:55;97003.00;;;-2.06;64.47
29247;BME280;16272;48.188;9.964;2022-12-18T08:47:20;97004.69;;;-2.05;64.33
29247;BME280;16272;48.188;9.964;2022-12-18T08:49:46;96997.63;;;-2.00;64.28
29247;BME280;16272;48.188;9.964;2022-12-18T08:52:11;96997.75;;;-2.34;64.92
29247;BME280;16272;48.188;9.964;2022-12-18T08:54:36;96995.41;;;-2.14;64.14
29247;BME280;16272;48.188;9.964;2022-12-18T08:57:02;97003.34;;;-2.50;65.07
29247;BME280;16272;48.188;9.964;2022-12-18T08:59:27;97002.63;;;-2.55;65.60
29247;BME280;16272;48.188;9.964;2022-12-18T09:01:53;97000.91;;;-2.56;65.99
29247;BME280;16272;48.188;9.964;2022-12-18T09:04:19;97001.56;;;-2.48;65.56
29247;BME280;16272;48.188;9.964;2022-12-18T09:06:44;97008.81;;;-2.59;65.73
29247;BME280;16272;48.188;9.964;2022-12-18T09:09:10;96999.22;;;-1.96;63.74
29247;BME280;16272;48.188;9.964;2022-12-18T09:11:36;97007.09;;;-2.60;65.96
29247;BME280;16272;48.188;9.964;2022-12-18T09:14:02;96997.97;;;-2.12;64.91
29247;BME280;16272;48.188;9.964;2022-12-18T09:16:28;97001.06;;;-1.71;63.55
29247;BME280;16272;48.188;9.964;2022-12-18T09:18:54;97010.22;;;-1.86;63.72
29247;BME280;16272;48.188;9.964;2022-12-18T09:21:25;97016.19;;;-1.54;62.90
29247;BME280;16272;48.188;9.964;2022-12-18T09:23:54;97012.06;;;-1.61;63.27
29247;BME280;16272;48.188;9.964;2022-12-18T09:26:22;97006.97;;;-1.38;61.96
29247;BME280;16272;48.188;9.964;2022-12-18T09:28:47;97016.19;;;-1.54;62.66
29247;BME280;16272;48.188;9.964;2022-12-18T09:31:14;96996.69;;;-1.41;61.98
29247;BME280;16272;48.188;9.964;2022-12-18T09:33:39;97000.53;;;-1.54;61.77
29247;BME280;16272;48.188;9.964;2022-12-18T09:36:07;96993.09;;;-1.65;62.74
29247;BME280;16272;48.188;9.964;2022-12-18T09:38:34;96995.50;;;-1.32;62.34
29247;BME280;16272;48.188;9.964;2022-12-18T09:41:04;96999.44;;;-2.04;63.82
29247;BME280;16272;48.188;9.964;2022-12-18T09:43:40;96995.09;;;-1.46;62.80
29247;BME280;16272;48.188;9.964;2022-12-18T09:46:09;97004.84;;;-0.98;61.24
29247;BME280;16272;48.188;9.964;2022-12-18T09:48:42;96993.63;;;-1.02;60.79
29247;BME280;16272;48.188;9.964;2022-12-18T09:51:16;96984.38;;;-1.11;60.97
29247;BME280;16272;48.188;9.964;2022-12-18T09:53:47;96994.81;;;-1.11;61.37
29247;BME280;16272;48.188;9.964;2022-12-18T09:56:18;96996.66;;;-1.69;62.51
29247;BME280;16272;48.188;9.964;2022-12-18T09:58:50;96994.16;;;-1.44;62.41
29247;BME280;16272;48.188;9.964;2022-12-18T10:01:21;97006.88;;;-1.35;61.95
29247;BME280;16272;48.188;9.964;2022-12-18T10:03:48;97005.81;;;-1.27;62.00
29247;BME280;16272;48.188;9.964;2022-12-18T10:08:49;97000.59;;;-0.76;60.90
29247;BME280;16272;48.188;9.964;2022-12-18T10:14:03;96991.44;;;-0.87;60.66
29247;BME280;16272;48.188;9.964;2022-12-18T10:16:47;96992.97;;;-0.57;60.11
29247;BME280;16272;48.188;9.964;2022-12-18T10:19:34;96991.56;;;-0.65;60.02
29247;BME280;16272;48.188;9.964;2022-12-18T10:22:14;96996.97;;;-1.23;61.98
29247;BME280;16272;48.188;9.964;2022-12-18T10:25:04;96988.50;;;-1.30;62.76
29247;BME280;16272;48.188;9.964;2022-12-18T10:27:31;96981.81;;;-1.65;63.40
29247;BME280;16272;48.188;9.964;2022-12-18T10:29:57;96970.81;;;-1.47;62.61
29247;BME280;16272;48.188;9.964;2022-12-18T10:32:26;96972.50;;;-1.46;62.77
29247;BME280;16272;48.188;9.964;2022-12-18T10:34:54;96973.78;;;-1.59;63.45
29247;BME280;16272;48.188;9.964;2022-12-18T10:37:22;96968.19;;;-1.20;62.26
29247;BME280;16272;48.188;9.964;2022-12-18T10:40:11;96961.41;;;-1.53;62.57
29247;BME280;16272;48.188;9.964;2022-12-18T10:42:37;96964.75;;;-1.48;62.91
29247;BME280;16272;48.188;9.964;2022-12-18T10:45:15;96979.13;;;-1.92;63.87
29247;BME280;16272;48.188;9.964;2022-12-18T10:47:48;96981.41;;;-1.53;62.47
29247;BME280;16272;48.188;9.964;2022-12-18T10:52:57;96999.13;;;-1.93;63.74
29247;BME280;16272;48.188;9.964;2022-12-18T10:55:26;97003.09;;;-2.09;64.82
29247;BME280;16272;48.188;9.964;2022-12-18T10:57:52;97001.28;;;-1.22;62.19
29247;BME280;16272;48.188;9.964;2022-12-18T11:00:27;97001.50;;;-1.03;61.13
29247;BME280;16272;48.188;9.964;2022-12-18T11:02:54;96996.81;;;-1.19;61.65
29247;BME280;16272;48.188;9.964;2022-12-18T11:05:29;96993.72;;;-0.53;60.10
29247;BME280;16272;48.188;9.964;2022-12-18T11:07:55;96999.19;;;-0.86;61.18
29247;BME280;16272;48.188;9.964;2022-12-18T11:10:25;96997.47;;;-0.60;60.03
29247;BME280;16272;48.188;9.964;2022-12-18T11:12:52;96997.28;;;-1.06;60.21
29247;BME280;16272;48.188;9.964;2022-12-18T11:15:26;96999.66;;;-1.26;61.78
29247;BME280;16272;48.188;9.964;2022-12-18T11:17:53;96993.72;;;-0.53;60.22
29247;BME280;16272;48.188;9.964;2022-12-18T11:20:27;96995.06;;;-0.91;61.21
29247;BME280;16272;48.188;9.964;2022-12-18T11:23:00;96988.19;;;-1.21;61.87
29247;BME280;16272;48.188;9.964;2022-12-18T11:25:26;96995.47;;;-1.57;63.17
29247;BME280;16272;48.188;9.964;2022-12-18T11:27:55;96998.88;;;-1.28;62.28
29247;BME280;16272;48.188;9.964;2022-12-18T11:32:53;96983.88;;;-0.70;60.47
29247;BME280;16272;48.188;9.964;2022-12-18T11:35:38;96980.44;;;-1.22;62.09
29247;BME280;16272;48.188;9.964;2022-12-18T11:38:28;96973.91;;;-1.09;62.19
29247;BME280;16272;48.188;9.964;2022-12-18T11:41:05;96986.06;;;-1.63;63.45
29247;BME280;16272;48.188;9.964;2022-12-18T11:43:54;96981.88;;;-1.40;62.93
29247;BME280;16272;48.188;9.964;2022-12-18T11:46:33;96982.16;;;-1.50;62.94
29247;BME280;16272;48.188;9.964;2022-12-18T11:49:21;96981.72;;;-1.09;61.67
29247;BME280;16272;48.188;9.964;2022-12-18T11:54:25;96973.91;;;-1.09;61.66
29247;BME280;16272;48.188;9.964;2022-12-18T11:56:58;96976.59;;;-1.12;62.18
29247;BME280;16272;48.188;9.964;2022-12-18T11:59:36;96964.84;;;-0.25;59.04
29247;BME280;16272;48.188;9.964;2022-12-18T12:05:44;96956.03;;;-0.44;59.16
29247;BME280;16272;48.188;9.964;2022-12-18T12:10:49;96930.34;;;-0.80;60.90
29247;BME280;16272;48.188;9.964;2022-12-18T12:18:47;96915.69;;;-1.61;63.02
29247;BME280;16272;48.188;9.964;2022-12-18T12:24:40;96910.91;;;-0.97;61.81
29247;BME280;16272;48.188;9.964;2022-12-18T12:26:46;96911.50;;;-0.88;61.65
29247;BME280;16272;48.188;9.964;2022-12-18T12:29:40;96917.84;;;-0.25;60.03
29247;BME280;16272;48.188;9.964;2022-12-18T12:32:25;96913.53;;;-0.97;61.55
29247;BME280;16272;48.188;9.964;2022-12-18T12:35:04;96910.59;;;-0.40;59.79
29247;BME280;16272;48.188;9.964;2022-12-18T12:40:27;96907.66;;;-0.78;60.78
29247;BME280;16272;48.188;9.964;2022-12-18T12:46:03;96896.34;;;-1.27;62.30
29247;BME280;16272;48.188;9.964;2022-12-18T12:51:08;96905.81;;;-1.00;61.28
29247;BME280;16272;48.188;9.964;2022-12-18T12:53:37;96915.75;;;-1.11;62.80
29247;BME280;16272;48.188;9.964;2022-12-18T12:56:04;96917.72;;;-0.69;61.19
29247;BME280;16272;48.188;9.964;2022-12-18T12:58:36;96919.09;;;-1.33;63.02
29247;BME280;16272;48.188;9.964;2022-12-18T13:01:18;96917.66;;;-1.16;63.33
29247;BME280;16272;48.188;9.964;2022-12-18T13:07:03;96910.25;;;-0.78;61.09
29247;BME280;16272;48.188;9.964;2022-12-18T13:09:32;96914.28;;;-0.22;60.19
29247;BME280;16272;48.188;9.964;2022-12-18T13:12:03;96911.16;;;-0.79;60.96
29247;BME280;16272;48.188;9.964;2022-12-18T13:14:47;96905.91;;;-0.54;60.71
29247;BME280;16272;48.188;9.964;2022-12-18T13:19:42;96904.78;;;-0.96;61.50
29247;BME280;16272;48.188;9.964;2022-12-18T13:22:28;96909.19;;;-0.98;61.34
29247;BME280;16272;48.188;9.964;2022-12-18T13:24:54;96910.72;;;-1.42;62.13
29247;BME280;16272;48.188;9.964;2022-12-18T13:27:47;96923.47;;;-1.35;63.08
29247;BME280;16272;48.188;9.964;2022-12-18T13:40:57;96914.56;;;-0.30;59.61
29247;BME280;16272;48.188;9.964;2022-12-18T13:51:57;96918.75;;;-0.97;62.11
29247;BME280;16272;48.188;9.964;2022-12-18T13:54:35;96913.31;;;-1.16;62.31
29247;BME280;16272;48.188;9.964;2022-12-18T13:57:03;96911.81;;;-0.98;61.88
29247;BME280;16272;48.188;9.964;2022-12-18T13:59:35;96906.03;;;-0.82;61.64
29247;BME280;16272;48.188;9.964;2022-12-18T14:02:12;96913.91;;;-0.59;60.82
29247;BME280;16272;48.188;9.964;2022-12-18T14:04:38;96914.78;;;-1.08;61.68
29247;BME280;16272;48.188;9.964;2022-12-18T14:07:06;96916.06;;;-1.20;62.69
29247;BME280;16272;48.188;9.964;2022-12-18T14:09:37;96918.88;;;-1.53;63.30
29247;BME280;16272;48.188;9.964;2022-12-18T14:12:05;96927.72;;;-2.14;65.06
29247;BME280;16272;48.188;9.964;2022-12-18T14:14:51;96926.09;;;-1.61;63.88
29247;BME280;16272;48.188;9.964;2022-12-18T14:17:17;96928.41;;;-1.00;62.43
29247;BME280;16272;48.188;9.964;2022-12-18T14:19:53;96929.22;;;-1.50;63.76
29247;BME280;16272;48.188;9.964;2022-12-18T14:22:25;96927.47;;;-1.23;62.76
29247;BME280;16272;48.188;9.964;2022-12-18T14:25:13;96922.00;;;-1.17;62.34
29247;BME280;16272;48.188;9.964;2022-12-18T14:27:53;96918.88;;;-1.53;63.38